Time;durP1;ratioP1;P1;durP2;ratioP2;P2;SDS_P1;SDS_P2;PMS_P1;PMS_P2;Temp;Humidity;BMP_temperature;BMP_pressure;BME280_temperature;BME280_humidity;BME280_pressure;Samples;Min_cycle;Max_cycle;Signal;HPM_P1;HPM_P2
2023/08/07 00:00:29;;;;;;;4.53;1.25;;;15.30;97.40;;;;;;5055648;28;20094;-76
2023/08/07 00:02:55;;;;;;;4.63;1.10;;;15.30;97.40;;;;;;5073222;28;20033;-76
2023/08/07 00:05:21;;;;;;;7.57;1.60;;;15.20;97.30;;;;;;5055535;28;20041;-76
2023/08/07 00:07:46;;;;;;;5.25;1.20;;;15.20;97.40;;;;;;5073201;28;20052;-76
2023/08/07 00:10:13;;;;;;;4.15;1.02;;;15.20;97.40;;;;;;5072323;28;20037;-76
2023/08/07 00:12:38;;;;;;;4.38;1.58;;;15.20;97.50;;;;;;5073130;28;20029;-76
2023/08/07 00:15:05;;;;;;;5.50;1.08;;;15.20;97.50;;;;;;5072022;28;20043;-76
2023/08/07 00:17:31;;;;;;;5.45;1.20;;;15.20;97.40;;;;;;5073122;28;20522;-77
2023/08/07 00:19:57;;;;;;;4.18;1.48;;;15.20;97.50;;;;;;5073105;28;20092;-76
2023/08/07 00:22:23;;;;;;;5.50;1.08;;;15.20;97.50;;;;;;5073062;28;20022;-76
2023/08/07 00:24:48;;;;;;;4.13;1.15;;;15.20;97.60;;;;;;5073003;28;20063;-77
2023/08/07 00:27:14;;;;;;;5.38;1.20;;;15.20;97.60;;;;;;5072096;28;20033;-76
2023/08/07 00:29:40;;;;;;;5.65;1.10;;;15.20;97.60;;;;;;5072945;28;20028;-76
2023/08/07 00:32:06;;;;;;;5.90;1.70;;;15.10;97.90;;;;;;5072014;28;20113;-76
2023/08/07 00:34:32;;;;;;;7.32;1.42;;;15.10;97.60;;;;;;5071803;28;20051;-76
2023/08/07 00:36:57;;;;;;;5.75;1.30;;;15.20;97.60;;;;;;5072863;28;20028;-76
2023/08/07 00:39:24;;;;;;;6.05;1.67;;;15.20;97.60;;;;;;5055403;28;20425;-76
2023/08/07 00:41:49;;;;;;;4.07;0.98;;;15.20;97.50;;;;;;5072858;28;20021;-76
2023/08/07 00:44:15;;;;;;;9.40;1.30;;;15.20;97.50;;;;;;5071705;28;20060;-76
2023/08/07 00:46:42;;;;;;;5.55;1.45;;;15.20;97.50;;;;;;5072782;28;20028;-76
2023/08/07 00:49:11;;;;;;;6.05;1.10;;;15.20;97.50;;;;;;5072840;28;20026;-76
2023/08/07 00:51:37;;;;;;;3.63;0.90;;;15.20;97.40;;;;;;5071832;28;20083;-76
2023/08/07 00:54:04;;;;;;;6.25;1.27;;;15.20;97.30;;;;;;5071818;28;20024;-76
2023/08/07 00:56:30;;;;;;;4.50;1.10;;;15.20;97.30;;;;;;5071691;28;20021;-76
2023/08/07 00:58:58;;;;;;;7.20;1.42;;;15.20;97.30;;;;;;5072724;28;20013;-76
2023/08/07 01:01:23;;;;;;;4.85;1.20;;;15.20;97.10;;;;;;5071683;28;20021;-76
2023/08/07 01:03:49;;;;;;;5.68;1.38;;;15.20;97.10;;;;;;5072669;28;20043;-77
2023/08/07 01:06:15;;;;;;;5.97;1.27;;;15.20;97.10;;;;;;5072667;28;20032;-76
2023/08/07 01:08:41;;;;;;;6.25;1.20;;;15.20;97.10;;;;;;5073143;28;20500;-76
2023/08/07 01:11:56;;;;;;;2.88;1.10;;;15.20;97.00;;;;;;5076276;28;20037;-76
2023/08/07 01:14:21;;;;;;;6.70;1.17;;;15.20;96.90;;;;;;5075414;28;20044;-76
2023/08/07 01:17:02;;;;;;;8.90;1.80;;;15.20;96.90;;;;;;5076200;28;20029;-76
2023/08/07 01:19:28;;;;;;;6.93;1.17;;;15.20;96.90;;;;;;5076214;28;20017;-76
2023/08/07 01:22:15;;;;;;;7.38;1.52;;;15.20;96.90;;;;;;5075234;28;20025;-76
2023/08/07 01:24:43;;;;;;;5.53;1.30;;;15.20;96.60;;;;;;5076146;28;20033;-76
2023/08/07 01:27:18;;;;;;;4.93;1.23;;;15.20;96.70;;;;;;5075090;28;20033;-76
2023/08/07 01:29:57;;;;;;;3.40;1.30;;;15.20;96.70;;;;;;5075955;28;20063;-77
2023/08/07 01:32:45;;;;;;;5.40;1.50;;;15.20;96.70;;;;;;5074926;28;20060;-76
2023/08/07 01:35:14;;;;;;;5.70;1.67;;;15.20;96.60;;;;;;5075866;28;20056;-76
2023/08/07 01:37:42;;;;;;;4.60;1.42;;;15.20;96.60;;;;;;5075886;28;20123;-76
2023/08/07 01:40:10;;;;;;;7.15;1.23;;;15.20;96.50;;;;;;5075847;28;20023;-76
2023/08/07 01:42:36;;;;;;;5.63;1.48;;;15.20;96.40;;;;;;5075696;28;20112;-76
2023/08/07 01:45:02;;;;;;;3.70;1.05;;;15.20;96.40;;;;;;5074435;28;20066;-76
2023/08/07 01:47:28;;;;;;;6.50;1.38;;;15.20;96.40;;;;;;5075593;28;20047;-76
2023/08/07 01:49:53;;;;;;;5.30;1.10;;;15.10;96.10;;;;;;5074624;28;20028;-76
2023/08/07 01:52:20;;;;;;;6.03;1.50;;;15.10;95.90;;;;;;5075538;28;20033;-77
2023/08/07 01:54:46;;;;;;;3.50;1.15;;;15.20;96.10;;;;;;5074588;28;20037;-76
2023/08/07 01:57:12;;;;;;;3.83;1.40;;;15.20;95.80;;;;;;5074438;28;20092;-76
2023/08/07 01:59:38;;;;;;;6.10;1.40;;;15.20;95.90;;;;;;5074411;28;20029;-76
2023/08/07 02:02:04;;;;;;;7.43;2.08;;;15.20;95.80;;;;;;5074430;28;20029;-76
2023/08/07 02:04:29;;;;;;;4.93;1.45;;;15.20;95.60;;;;;;5075337;28;20018;-76
2023/08/07 02:06:55;;;;;;;5.70;1.40;;;15.20;95.60;;;;;;5057653;28;20364;-76
2023/08/07 02:09:21;;;;;;;4.85;1.15;;;15.20;95.60;;;;;;5075292;28;20037;-76
2023/08/07 02:11:47;;;;;;;5.80;1.13;;;15.20;95.70;;;;;;5074162;28;20044;-76
2023/08/07 02:14:12;;;;;;;10.10;1.50;;;15.20;95.70;;;;;;5075106;28;20029;-76
2023/08/07 02:16:38;;;;;;;3.60;1.40;;;15.30;95.70;;;;;;5075092;28;20029;-76
2023/08/07 02:19:04;;;;;;;5.47;1.30;;;15.20;95.60;;;;;;5074180;28;20029;-76
2023/08/07 02:21:29;;;;;;;4.63;1.20;;;15.20;95.60;;;;;;5073091;28;20059;-76
2023/08/07 02:23:55;;;;;;;10.27;1.35;;;15.20;95.60;;;;;;5075028;28;20037;-76
2023/08/07 02:26:20;;;;;;;3.60;1.38;;;15.20;95.50;;;;;;5073871;28;20040;-76
2023/08/07 02:28:46;;;;;;;8.43;1.63;;;15.20;95.60;;;;;;5074064;28;20029;-77
2023/08/07 02:31:12;;;;;;;5.28;1.42;;;15.20;95.60;;;;;;5074789;28;20037;-76
2023/08/07 02:33:37;;;;;;;6.10;1.60;;;15.20;95.60;;;;;;5074685;28;20025;-76
2023/08/07 02:36:03;;;;;;;2.90;1.20;;;15.20;95.40;;;;;;5074584;28;20036;-76
2023/08/07 02:38:29;;;;;;;8.27;1.55;;;15.20;95.50;;;;;;5074691;28;20026;-76
2023/08/07 02:40:54;;;;;;;5.70;1.55;;;15.20;95.70;;;;;;5057139;28;20104;-76
2023/08/07 02:43:20;;;;;;;5.25;1.27;;;15.10;95.80;;;;;;5074375;28;20033;-76
2023/08/07 02:45:45;;;;;;;6.22;1.60;;;15.10;96.00;;;;;;5056932;28;20025;-76
2023/08/07 02:48:11;;;;;;;8.95;1.77;;;15.10;96.20;;;;;;5073733;28;20529;-76
2023/08/07 02:50:37;;;;;;;9.40;2.05;;;15.10;96.30;;;;;;5073437;28;20029;-76
2023/08/07 02:53:02;;;;;;;6.72;1.65;;;15.10;96.40;;;;;;5074388;28;20028;-76
2023/08/07 02:55:28;;;;;;;5.43;1.52;;;15.00;96.40;;;;;;5074256;28;20064;-76
2023/08/07 02:57:54;;;;;;;6.05;1.88;;;15.10;96.40;;;;;;5073357;28;20052;-76
2023/08/07 03:00:19;;;;;;;5.20;1.58;;;15.00;96.40;;;;;;5074215;28;20081;-76
2023/08/07 03:02:45;;;;;;;3.88;1.73;;;15.10;96.40;;;;;;5074148;28;20029;-76
2023/08/07 03:05:11;;;;;;;5.57;1.60;;;15.10;96.40;;;;;;5074127;28;20033;-76
2023/08/07 03:07:36;;;;;;;7.10;1.98;;;15.10;96.30;;;;;;5073196;28;20036;-76
2023/08/07 03:10:02;;;;;;;4.53;1.90;;;15.00;96.10;;;;;;5073090;28;20473;-76
2023/08/07 03:12:27;;;;;;;7.53;1.67;;;15.00;96.20;;;;;;5073940;28;20025;-76
2023/08/07 03:14:53;;;;;;;8.63;1.75;;;15.00;96.30;;;;;;5073863;28;20100;-76
2023/08/07 03:17:20;;;;;;;8.10;1.83;;;15.00;96.20;;;;;;5056362;28;20025;-76
2023/08/07 03:19:46;;;;;;;4.43;1.45;;;15.10;96.20;;;;;;5056490;28;20013;-76
2023/08/07 03:22:12;;;;;;;4.68;1.70;;;15.10;96.10;;;;;;5073034;28;20086;-76
2023/08/07 03:24:37;;;;;;;5.75;1.90;;;15.10;96.20;;;;;;5073781;28;20017;-76
2023/08/07 03:27:03;;;;;;;6.47;2.00;;;15.10;96.10;;;;;;5073897;28;20037;-76
2023/08/07 03:29:29;;;;;;;7.20;1.83;;;15.10;96.10;;;;;;5073830;28;20032;-76
2023/08/07 03:31:55;;;;;;;5.65;1.73;;;15.10;96.00;;;;;;5055847;28;20036;-76
2023/08/07 03:34:20;;;;;;;7.15;1.77;;;15.10;96.00;;;;;;5073590;28;20025;-76
2023/08/07 03:36:46;;;;;;;7.65;1.88;;;15.10;96.00;;;;;;5072645;28;20431;-76
2023/08/07 03:39:12;;;;;;;7.43;1.95;;;15.00;95.90;;;;;;5073515;28;20040;-76
2023/08/07 03:41:38;;;;;;;4.35;1.35;;;15.00;95.80;;;;;;5055994;28;20036;-76
2023/08/07 03:44:03;;;;;;;7.13;2.17;;;15.10;95.80;;;;;;5072398;28;20052;-76
2023/08/07 03:46:29;;;;;;;4.03;1.48;;;15.10;95.80;;;;;;5072581;28;20040;-75
2023/08/07 03:48:55;;;;;;;4.18;1.17;;;15.10;95.80;;;;;;5073516;28;20021;-76
2023/08/07 03:51:20;;;;;;;8.45;1.85;;;15.10;95.70;;;;;;5072423;28;20033;-76
2023/08/07 03:53:46;;;;;;;9.60;2.08;;;15.10;95.60;;;;;;5072348;28;20021;-76
2023/08/07 03:56:12;;;;;;;5.93;1.60;;;15.10;95.70;;;;;;5055710;28;20041;-76
2023/08/07 03:58:37;;;;;;;6.70;1.90;;;15.10;95.50;;;;;;5073271;28;20017;-76
2023/08/07 04:01:03;;;;;;;7.70;2.10;;;15.10;95.50;;;;;;5072304;28;20033;-76
2023/08/07 04:03:29;;;;;;;12.15;2.20;;;15.10;95.50;;;;;;5073390;28;20108;-76
2023/08/07 04:05:55;;;;;;;7.40;1.58;;;15.10;95.50;;;;;;5072331;28;20157;-76
2023/08/07 04:08:22;;;;;;;5.97;1.70;;;15.10;95.50;;;;;;5073217;28;20052;-76
2023/08/07 04:11:01;;;;;;;7.78;1.75;;;15.10;95.40;;;;;;5072190;28;20112;-76
2023/08/07 04:13:27;;;;;;;5.63;1.85;;;15.10;95.40;;;;;;5073194;28;20499;-76
2023/08/07 04:15:53;;;;;;;10.23;1.80;;;15.10;95.40;;;;;;5073026;28;20040;-76
2023/08/07 04:18:19;;;;;;;7.85;2.17;;;15.10;95.50;;;;;;5072191;28;20104;-76
2023/08/07 04:20:53;;;;;;;6.72;1.75;;;15.10;95.50;;;;;;5072225;28;20051;-76
2023/08/07 04:23:19;;;;;;;5.65;1.73;;;15.00;95.60;;;;;;5072088;28;20021;-76
2023/08/07 04:25:47;;;;;;;7.55;1.85;;;15.00;95.70;;;;;;5073006;28;20051;-77
2023/08/07 04:28:12;;;;;;;3.97;1.70;;;15.10;95.80;;;;;;5072991;28;20033;-76
2023/08/07 04:30:38;;;;;;;3.10;1.50;;;15.00;95.80;;;;;;5071919;28;20135;-76
2023/08/07 04:33:04;;;;;;;6.35;1.80;;;15.00;95.90;;;;;;5055360;28;20036;-76
2023/08/07 04:35:30;;;;;;;4.13;1.20;;;15.00;95.90;;;;;;5055352;28;20074;-76
2023/08/07 04:37:56;;;;;;;8.65;1.67;;;15.10;95.90;;;;;;5071885;28;20017;-76
2023/08/07 04:40:22;;;;;;;10.65;2.25;;;15.10;95.90;;;;;;5072897;28;20399;-76
2023/08/07 04:42:49;;;;;;;7.30;1.98;;;15.00;95.90;;;;;;5071929;28;20025;-77
2023/08/07 04:45:15;;;;;;;10.23;1.98;;;15.00;96.10;;;;;;5074908;28;20083;-76
2023/08/07 04:47:41;;;;;;;7.03;1.90;;;15.00;96.20;;;;;;5075866;28;20036;-76
2023/08/07 04:50:08;;;;;;;4.32;1.63;;;15.00;96.40;;;;;;5075756;28;20040;-76
2023/08/07 04:52:37;;;;;;;5.70;2.15;;;15.00;96.40;;;;;;5059178;28;20022;-76
2023/08/07 04:55:03;;;;;;;8.43;1.83;;;15.00;96.50;;;;;;5075553;28;20044;-76
2023/08/07 04:57:28;;;;;;;6.55;1.60;;;15.00;96.70;;;;;;5076630;28;20048;-76
2023/08/07 04:59:54;;;;;;;4.82;1.52;;;15.00;96.60;;;;;;5075689;28;20021;-76
2023/08/07 05:02:20;;;;;;;4.53;1.35;;;15.00;96.70;;;;;;5075484;28;20040;-76
2023/08/07 05:04:45;;;;;;;4.22;1.50;;;15.00;96.70;;;;;;5076441;28;20033;-76
2023/08/07 05:07:12;;;;;;;5.78;1.67;;;15.00;96.90;;;;;;5076371;28;20029;-76
2023/08/07 05:09:38;;;;;;;4.43;1.65;;;15.00;96.90;;;;;;5076351;28;20025;-76
2023/08/07 05:12:05;;;;;;;6.93;1.65;;;15.10;97.00;;;;;;5075326;28;20021;-76
2023/08/07 05:14:30;;;;;;;3.88;1.25;;;15.00;97.00;;;;;;5076253;28;20025;-76
2023/08/07 05:16:56;;;;;;;8.85;2.00;;;15.10;97.10;;;;;;5075178;28;20051;-76
2023/08/07 05:19:21;;;;;;;6.15;1.52;;;15.10;97.10;;;;;;5076138;28;20044;-77
2023/08/07 05:21:51;;;;;;;6.43;1.92;;;15.10;97.10;;;;;;5042002;28;20120;-77
2023/08/07 05:24:17;;;;;;;4.75;1.63;;;15.00;97.20;;;;;;5075165;28;20108;-76
2023/08/07 05:26:43;;;;;;;2.88;1.60;;;15.10;97.20;;;;;;5075026;28;20056;-76
2023/08/07 05:29:08;;;;;;;4.20;1.45;;;15.10;97.30;;;;;;5074966;28;20036;-76
2023/08/07 05:31:34;;;;;;;7.03;1.80;;;15.10;97.20;;;;;;5075002;28;20053;-76
2023/08/07 05:34:00;;;;;;;4.60;1.70;;;15.10;97.30;;;;;;5074803;28;20037;-77
2023/08/07 05:36:25;;;;;;;6.05;1.65;;;15.10;97.30;;;;;;5074922;28;20040;-77
2023/08/07 05:38:51;;;;;;;7.50;1.90;;;15.10;97.30;;;;;;5075829;28;20032;-76
2023/08/07 05:41:16;;;;;;;4.78;1.70;;;15.10;97.40;;;;;;5074877;28;20025;-76
2023/08/07 05:43:42;;;;;;;5.05;1.70;;;15.10;97.40;;;;;;5075527;28;20128;-76
2023/08/07 05:46:08;;;;;;;4.95;1.98;;;15.10;97.40;;;;;;5075854;28;20059;-76
2023/08/07 05:48:33;;;;;;;5.68;1.67;;;15.10;97.50;;;;;;5075611;28;20040;-76
2023/08/07 05:50:59;;;;;;;7.53;1.88;;;15.10;97.50;;;;;;5074646;28;20093;-76
2023/08/07 05:53:25;;;;;;;6.03;1.83;;;15.10;97.60;;;;;;5075509;28;20088;-77
2023/08/07 05:55:50;;;;;;;4.60;1.58;;;15.10;97.70;;;;;;5073292;28;20037;-76
2023/08/07 05:58:16;;;;;;;4.00;1.50;;;15.10;97.70;;;;;;5057832;28;20021;-77
2023/08/07 06:00:41;;;;;;;7.38;1.63;;;15.10;97.70;;;;;;5074394;28;20032;-76
2023/08/07 06:03:07;;;;;;;6.10;1.70;;;15.10;97.80;;;;;;5074404;28;20025;-77
2023/08/07 06:05:34;;;;;;;9.82;2.00;;;15.10;97.80;;;;;;5074377;28;20106;-77
2023/08/07 06:08:00;;;;;;;3.72;1.50;;;15.10;97.90;;;;;;5074290;28;20025;-77
2023/08/07 06:10:26;;;;;;;14.32;3.13;;;15.10;98.00;;;;;;5074338;28;20441;-77
2023/08/07 06:12:52;;;;;;;4.50;1.35;;;15.10;98.00;;;;;;5074217;28;20036;-77
2023/08/07 06:15:17;;;;;;;6.50;1.48;;;15.10;98.00;;;;;;5075008;28;20040;-77
2023/08/07 06:17:43;;;;;;;6.50;2.20;;;15.20;98.00;;;;;;5075132;28;20054;-77
2023/08/07 06:20:11;;;;;;;5.75;1.80;;;15.20;98.00;;;;;;5057465;28;20025;-76
2023/08/07 06:22:36;;;;;;;4.82;1.40;;;15.10;98.00;;;;;;5074096;28;20356;-76
2023/08/07 06:25:02;;;;;;;6.18;1.70;;;15.20;98.30;;;;;;5073996;28;20043;-77
2023/08/07 06:27:28;;;;;;;12.70;2.17;;;15.20;97.90;;;;;;5074871;28;20025;-77
2023/08/07 06:29:54;;;;;;;4.03;1.60;;;15.20;97.90;;;;;;5074894;28;20111;-76
2023/08/07 06:32:20;;;;;;;8.20;1.98;;;15.20;97.80;;;;;;5074967;28;20028;-77
2023/08/07 06:34:46;;;;;;;7.38;2.13;;;15.20;97.80;;;;;;5074746;28;20032;-76
2023/08/07 06:37:12;;;;;;;6.18;1.52;;;15.20;97.80;;;;;;5075003;28;20021;-76
2023/08/07 06:39:37;;;;;;;5.47;2.05;;;15.20;97.80;;;;;;5074616;28;20036;-77
2023/08/07 06:42:03;;;;;;;7.25;1.65;;;15.20;97.70;;;;;;5057102;28;20045;-77
2023/08/07 06:44:29;;;;;;;6.65;1.75;;;15.30;97.70;;;;;;5074336;28;20079;-77
2023/08/07 06:46:55;;;;;;;6.20;1.88;;;15.30;97.70;;;;;;5057065;28;20040;-76
2023/08/07 06:49:21;;;;;;;4.80;1.73;;;15.20;97.60;;;;;;5073473;28;20033;-76
2023/08/07 06:51:46;;;;;;;8.13;1.63;;;15.30;97.60;;;;;;5073474;28;20021;-76
2023/08/07 06:54:12;;;;;;;7.72;1.65;;;15.30;97.50;;;;;;5074401;28;20387;-76
2023/08/07 06:56:40;;;;;;;7.97;1.60;;;15.30;97.50;;;;;;5074272;28;20037;-77
2023/08/07 06:59:06;;;;;;;9.23;1.65;;;15.30;97.50;;;;;;5074310;28;20029;-77
2023/08/07 07:01:32;;;;;;;5.65;2.53;;;15.30;97.60;;;;;;5073306;28;20036;-76
2023/08/07 07:03:57;;;;;;;3.55;1.38;;;15.30;97.60;;;;;;5074182;28;20047;-77
2023/08/07 07:06:25;;;;;;;4.40;1.67;;;15.40;97.60;;;;;;5072801;28;20040;-76
2023/08/07 07:08:54;;;;;;;4.65;1.73;;;15.40;97.60;;;;;;5074112;28;20028;-76
2023/08/07 07:11:20;;;;;;;4.22;1.48;;;15.40;97.50;;;;;;5073092;28;20029;-76
2023/08/07 07:13:46;;;;;;;4.65;1.40;;;15.50;97.50;;;;;;5056624;28;20085;-76
2023/08/07 07:16:13;;;;;;;5.60;1.58;;;15.50;97.60;;;;;;5072996;28;20108;-76
2023/08/07 07:18:39;;;;;;;6.50;1.80;;;15.50;97.50;;;;;;5073920;28;20017;-76
2023/08/07 07:21:04;;;;;;;8.15;2.00;;;15.40;97.40;;;;;;5073901;28;20028;-76
2023/08/07 07:23:30;;;;;;;5.85;1.42;;;15.50;97.40;;;;;;5072820;28;20029;-76
2023/08/07 07:25:57;;;;;;;8.38;1.60;;;15.50;97.20;;;;;;5072956;28;20052;-76
2023/08/07 07:28:23;;;;;;;4.82;1.60;;;15.50;97.10;;;;;;5056210;28;20029;-77
2023/08/07 07:30:50;;;;;;;3.85;1.38;;;15.50;97.10;;;;;;5073753;28;20032;-77
2023/08/07 07:33:16;;;;;;;4.60;1.90;;;15.50;97.00;;;;;;5072627;28;20021;-77
2023/08/07 07:35:42;;;;;;;10.13;2.08;;;15.60;97.10;;;;;;5073464;28;20099;-76
2023/08/07 07:38:08;;;;;;;4.85;1.50;;;15.70;96.90;;;;;;5072608;28;20040;-77
2023/08/07 07:40:34;;;;;;;6.68;1.77;;;15.70;96.90;;;;;;5073519;28;20048;-77
2023/08/07 07:43:00;;;;;;;7.15;2.35;;;15.70;96.70;;;;;;5072556;28;20060;-77
2023/08/07 07:45:25;;;;;;;7.93;1.65;;;15.70;96.50;;;;;;5055596;28;20048;-76
2023/08/07 07:47:51;;;;;;;3.50;1.40;;;15.70;96.50;;;;;;5073422;28;20037;-76
2023/08/07 07:50:17;;;;;;;6.63;1.50;;;15.70;96.80;;;;;;5072551;28;20036;-76
2023/08/07 07:52:43;;;;;;;5.00;1.60;;;15.80;96.60;;;;;;5072313;28;20029;-76
2023/08/07 07:55:09;;;;;;;4.40;1.40;;;15.80;96.60;;;;;;5073233;28;20029;-76
2023/08/07 07:57:35;;;;;;;5.07;1.60;;;15.80;96.30;;;;;;5055821;28;20017;-76
2023/08/07 08:00:02;;;;;;;4.57;1.83;;;15.90;96.40;;;;;;5073263;28;20031;-76
2023/08/07 08:02:28;;;;;;;4.80;1.95;;;15.90;95.80;;;;;;5073248;28;20040;-76
2023/08/07 08:04:53;;;;;;;7.55;1.77;;;15.90;96.10;;;;;;5072171;28;20033;-76
2023/08/07 08:07:19;;;;;;;3.80;1.60;;;16.00;96.40;;;;;;5072226;28;20029;-76
2023/08/07 08:09:45;;;;;;;3.95;1.50;;;16.10;96.00;;;;;;5073155;28;20033;-76
2023/08/07 08:12:11;;;;;;;6.78;1.60;;;16.10;95.70;;;;;;5055632;28;20022;-76
2023/08/07 08:14:36;;;;;;;6.32;1.92;;;16.10;95.10;;;;;;5073031;28;20109;-77
2023/08/07 08:17:02;;;;;;;3.80;1.63;;;16.00;95.30;;;;;;5072149;28;20048;-76
2023/08/07 08:19:27;;;;;;;5.20;1.70;;;16.00;95.20;;;;;;5075126;28;20052;-76
2023/08/07 08:21:53;;;;;;;5.30;1.88;;;16.00;95.20;;;;;;5076234;28;20029;-76
2023/08/07 08:24:19;;;;;;;5.57;2.15;;;16.00;95.40;;;;;;5077215;28;20029;-76
2023/08/07 08:26:45;;;;;;;5.20;2.10;;;16.00;95.50;;;;;;5076137;28;20044;-76
2023/08/07 08:29:14;;;;;;;9.40;2.00;;;16.10;95.60;;;;;;5076086;28;20025;-76
2023/08/07 08:31:40;;;;;;;5.65;1.90;;;16.10;95.40;;;;;;5077134;28;20029;-76
2023/08/07 08:34:05;;;;;;;7.38;2.08;;;16.10;95.10;;;;;;5076009;28;20092;-76
2023/08/07 08:36:31;;;;;;;8.80;2.72;;;16.20;95.10;;;;;;5076958;28;20041;-76
2023/08/07 08:38:56;;;;;;;5.20;1.70;;;16.20;95.10;;;;;;5076935;28;20029;-76
2023/08/07 08:41:23;;;;;;;6.70;1.92;;;16.20;94.70;;;;;;5076907;28;20060;-75
2023/08/07 08:43:51;;;;;;;5.60;1.75;;;16.20;94.80;;;;;;5076688;28;20017;-76
2023/08/07 08:46:21;;;;;;;5.28;1.48;;;16.40;95.00;;;;;;5076861;28;20068;-76
2023/08/07 08:48:56;;;;;;;7.32;1.90;;;16.50;94.80;;;;;;5075830;28;20032;-76
2023/08/07 08:51:24;;;;;;;9.43;1.98;;;16.60;94.70;;;;;;5076887;28;20547;-76
2023/08/07 08:53:56;;;;;;;6.63;1.90;;;16.70;94.40;;;;;;5076747;28;20033;-75
2023/08/07 08:56:22;;;;;;;7.45;2.08;;;16.80;93.40;;;;;;5075638;28;20037;-75
2023/08/07 08:58:49;;;;;;;11.32;2.00;;;16.80;93.40;;;;;;5076623;28;20017;-75
2023/08/07 09:01:17;;;;;;;6.13;2.10;;;16.90;93.20;;;;;;5076516;28;20029;-75
2023/08/07 09:03:45;;;;;;;8.90;2.40;;;17.00;93.70;;;;;;5076471;28;20417;-75
2023/08/07 09:06:12;;;;;;;7.05;1.75;;;17.10;93.70;;;;;;5076427;28;20081;-75
2023/08/07 09:08:43;;;;;;;6.70;1.70;;;17.20;92.80;;;;;;5076415;28;20032;-76
2023/08/07 09:11:10;;;;;;;6.40;1.85;;;17.20;93.00;;;;;;5076403;28;20024;-75
2023/08/07 09:13:38;;;;;;;6.90;2.15;;;17.30;92.90;;;;;;5076260;28;20051;-76
2023/08/07 09:16:06;;;;;;;9.07;2.70;;;17.40;92.40;;;;;;5076302;28;20021;-75
2023/08/07 09:18:33;;;;;;;5.43;1.60;;;17.50;92.60;;;;;;5076214;28;20025;-76
2023/08/07 09:21:00;;;;;;;8.77;2.03;;;17.60;92.20;;;;;;5076119;28;20085;-75
2023/08/07 09:23:26;;;;;;;6.05;1.80;;;17.70;91.60;;;;;;5076130;28;20021;-75
2023/08/07 09:26:02;;;;;;;6.05;1.50;;;17.70;90.10;;;;;;5075271;28;20110;-75
2023/08/07 09:28:29;;;;;;;7.53;1.88;;;17.70;89.00;;;;;;5076024;28;20032;-76
2023/08/07 09:30:55;;;;;;;4.95;1.70;;;17.70;89.80;;;;;;5075718;28;20085;-76
2023/08/07 09:33:28;;;;;;;4.50;1.52;;;17.80;88.20;;;;;;5074928;28;20025;-76
2023/08/07 09:36:01;;;;;;;4.97;1.60;;;17.80;87.10;;;;;;5074911;28;20085;-75
2023/08/07 09:38:34;;;;;;;7.43;1.60;;;17.90;85.00;;;;;;5075854;28;20021;-75
2023/08/07 09:41:00;;;;;;;6.53;1.40;;;18.00;85.60;;;;;;5074777;28;20391;-75
2023/08/07 09:43:26;;;;;;;3.28;1.50;;;18.00;84.60;;;;;;5075798;28;20464;-75
2023/08/07 09:45:52;;;;;;;7.28;1.55;;;18.20;84.70;;;;;;5075585;28;20057;-76
2023/08/07 09:48:25;;;;;;;4.03;1.40;;;18.20;85.20;;;;;;5074813;28;20084;-75
2023/08/07 09:50:51;;;;;;;6.97;1.70;;;18.30;84.00;;;;;;5075607;28;20057;-75
2023/08/07 09:53:16;;;;;;;5.82;1.50;;;18.30;82.20;;;;;;5075663;28;20037;-75
2023/08/07 09:55:42;;;;;;;5.13;1.70;;;18.30;83.40;;;;;;5075435;28;20025;-75
2023/08/07 09:58:13;;;;;;;5.43;1.40;;;18.30;83.20;;;;;;5075567;28;20029;-75
2023/08/07 10:00:41;;;;;;;7.50;1.45;;;18.40;83.30;;;;;;5075416;28;20021;-75
2023/08/07 10:03:07;;;;;;;2.90;1.40;;;18.40;82.20;;;;;;5075400;28;20017;-75
2023/08/07 10:05:33;;;;;;;4.60;1.48;;;18.50;82.20;;;;;;5075303;28;20033;-75
2023/08/07 10:07:59;;;;;;;4.90;1.38;;;18.60;82.00;;;;;;5075250;28;20035;-75
2023/08/07 10:10:25;;;;;;;4.75;1.70;;;18.60;82.50;;;;;;5075204;28;20021;-75
2023/08/07 10:12:53;;;;;;;5.30;1.92;;;18.60;81.80;;;;;;5074215;28;20029;-75
2023/08/07 10:15:19;;;;;;;7.57;1.70;;;18.50;81.80;;;;;;5075050;28;20028;-75
2023/08/07 10:17:45;;;;;;;6.32;1.30;;;18.50;81.00;;;;;;5075121;28;20048;-75
2023/08/07 10:20:12;;;;;;;2.45;1.27;;;18.30;79.60;;;;;;5075115;28;20029;-75
2023/08/07 10:22:39;;;;;;;5.43;1.63;;;18.30;81.10;;;;;;5075091;28;20017;-75
2023/08/07 10:25:07;;;;;;;3.80;1.30;;;18.20;79.60;;;;;;5074070;28;20033;-75
2023/08/07 10:27:37;;;;;;;4.57;1.40;;;18.10;79.80;;;;;;5074889;28;20035;-75
2023/08/07 10:30:07;;;;;;;3.33;1.15;;;18.00;81.00;;;;;;5075025;28;20092;-75
2023/08/07 10:32:34;;;;;;;3.70;1.40;;;18.00;81.60;;;;;;5073909;28;20025;-75
2023/08/07 10:35:04;;;;;;;3.22;1.42;;;18.00;81.90;;;;;;5074632;28;20121;-75
2023/08/07 10:37:40;;;;;;;3.97;1.27;;;17.90;81.80;;;;;;5074852;28;20009;-75
2023/08/07 10:40:09;;;;;;;5.75;1.55;;;17.90;82.20;;;;;;5073925;28;20017;-75
2023/08/07 10:42:57;;;;;;;4.78;1.52;;;18.00;83.20;;;;;;5073924;28;20076;-75
2023/08/07 10:45:24;;;;;;;5.43;1.17;;;17.90;83.10;;;;;;5074414;28;20091;-75
2023/08/07 10:48:20;;;;;;;5.50;1.90;;;17.90;84.40;;;;;;5074506;28;20041;-75
2023/08/07 10:51:02;;;;;;;5.95;1.70;;;18.00;84.80;;;;;;5074048;28;20426;-75
2023/08/07 10:53:30;;;;;;;6.40;1.50;;;18.10;84.80;;;;;;5074492;28;20036;-75
2023/08/07 10:55:57;;;;;;;5.85;1.63;;;18.20;85.50;;;;;;5074283;28;20033;-75
2023/08/07 10:58:30;;;;;;;5.78;1.70;;;18.20;84.60;;;;;;5074279;28;20025;-75
2023/08/07 11:01:14;;;;;;;;;;;18.20;83.30;;;;;;5074815;28;20020;-75
2023/08/07 11:03:42;;;;;;;8.35;1.95;;;18.20;82.30;;;;;;5074246;28;19931;-75
2023/08/07 11:06:10;;;;;;;3.22;1.88;;;18.30;83.70;;;;;;5073135;28;20036;-75
2023/08/07 11:08:37;;;;;;;5.55;1.42;;;18.40;84.60;;;;;;5074142;28;20040;-75
2023/08/07 11:11:06;;;;;;;5.47;1.92;;;18.60;83.20;;;;;;5073037;28;20044;-76
2023/08/07 11:13:33;;;;;;;5.38;1.45;;;18.70;83.10;;;;;;5073982;28;20091;-76
2023/08/07 11:16:01;;;;;;;5.72;1.40;;;18.80;83.10;;;;;;5073928;28;20021;-75
2023/08/07 11:18:27;;;;;;;4.35;1.45;;;18.90;79.30;;;;;;5073941;28;20077;-76
2023/08/07 11:20:58;;;;;;;4.80;1.60;;;18.80;80.00;;;;;;5073915;28;20029;-75
2023/08/07 11:23:25;;;;;;;5.93;1.52;;;18.80;78.90;;;;;;5073906;28;20081;-75
2023/08/07 11:25:54;;;;;;;5.10;1.20;;;18.70;78.20;;;;;;5073783;28;20555;-75
2023/08/07 11:28:20;;;;;;;2.92;1.30;;;18.60;77.30;;;;;;5072980;28;20126;-75
2023/08/07 11:30:51;;;;;;;5.30;1.55;;;18.60;78.10;;;;;;5073764;28;20025;-75
2023/08/07 11:33:20;;;;;;;7.28;1.65;;;18.60;77.40;;;;;;5073508;28;20029;-75
2023/08/07 11:35:49;;;;;;;6.90;1.33;;;18.60;77.80;;;;;;5073558;28;20022;-75
2023/08/07 11:38:37;;;;;;;5.72;1.33;;;18.60;78.30;;;;;;5056525;28;20029;-75
2023/08/07 11:41:05;;;;;;;4.07;1.02;;;18.60;78.00;;;;;;5073557;28;20025;-75
2023/08/07 11:43:33;;;;;;;4.75;1.52;;;18.70;78.30;;;;;;5073565;28;20021;-75
2023/08/07 11:46:03;;;;;;;2.75;1.27;;;18.70;78.60;;;;;;5073331;28;20043;-76
2023/08/07 11:48:31;;;;;;;3.38;1.27;;;18.70;77.80;;;;;;5073497;28;20032;-76
2023/08/07 11:50:58;;;;;;;5.30;1.48;;;18.70;77.00;;;;;;5072496;28;20021;-75
2023/08/07 11:53:35;;;;;;;5.18;1.40;;;18.70;78.00;;;;;;5073368;28;20025;-77
2023/08/07 11:56:09;;;;;;;3.08;1.40;;;18.70;74.90;;;;;;5073305;28;20033;-76
2023/08/07 11:58:40;;;;;;;6.55;1.35;;;18.80;76.60;;;;;;5073414;28;20033;-76
2023/08/07 12:01:09;;;;;;;3.72;1.30;;;19.00;77.70;;;;;;5072365;28;20029;-76
2023/08/07 12:03:38;;;;;;;2.83;1.13;;;19.00;77.30;;;;;;5073102;28;20021;-76
2023/08/07 12:06:05;;;;;;;3.20;1.25;;;19.10;76.50;;;;;;5072324;28;20029;-76
2023/08/07 12:08:39;;;;;;;4.10;1.10;;;19.30;77.30;;;;;;5055719;28;20029;-76
2023/08/07 12:11:07;;;;;;;5.60;1.25;;;19.30;75.80;;;;;;5072490;28;20494;-77
2023/08/07 12:13:35;;;;;;;3.38;1.58;;;19.50;76.70;;;;;;5073169;28;20029;-76
2023/08/07 12:16:04;;;;;;;3.15;1.23;;;19.50;76.30;;;;;;5073088;28;20420;-76
2023/08/07 12:18:31;;;;;;;3.67;1.35;;;19.40;75.70;;;;;;5073122;28;20028;-76
2023/08/07 12:21:02;;;;;;;5.63;1.63;;;19.40;76.40;;;;;;5073100;28;20024;-76
2023/08/07 12:23:28;;;;;;;8.00;2.17;;;19.60;76.30;;;;;;5073114;28;20029;-77
2023/08/07 12:25:54;;;;;;;3.90;1.42;;;19.70;77.30;;;;;;5073018;28;20088;-77
2023/08/07 12:28:19;;;;;;;2.88;1.10;;;19.90;77.40;;;;;;5072133;28;20029;-77
2023/08/07 12:30:46;;;;;;;8.50;1.75;;;20.00;75.70;;;;;;5072981;28;20112;-76
2023/08/07 12:33:13;;;;;;;10.75;1.58;;;20.00;74.80;;;;;;5055447;28;20052;-77
2023/08/07 12:35:39;;;;;;;2.75;1.02;;;20.10;75.30;;;;;;5072050;28;20025;-76
2023/08/07 12:38:04;;;;;;;3.05;1.15;;;20.10;72.50;;;;;;5072968;28;20102;-77
2023/08/07 12:40:31;;;;;;;4.68;1.30;;;20.20;74.70;;;;;;5073003;28;20025;-76
2023/08/07 12:42:57;;;;;;;5.03;1.40;;;20.30;71.50;;;;;;5071868;28;20041;-77
2023/08/07 12:45:23;;;;;;;6.10;1.25;;;20.40;71.50;;;;;;5071700;28;20053;-77